Time;durP1;ratioP1;P1;durP2;ratioP2;P2;SDS_P1;SDS_P2;PMS_P1;PMS_P2;Temp;Humidity;BMP_temperature;BMP_pressure;BME280_temperature;BME280_humidity;BME280_pressure;Samples;Min_cycle;Max_cycle;Signal;HPM_P1;HPM_P2
2023/10/26 00:00:45;;;;;;;37.70;30.23;;;;;;;9.89;100.00;99624.94;4895310;29;20047;-78
2023/10/26 00:03:13;;;;;;;37.05;28.75;;;;;;;9.89;100.00;99636.31;4938980;29;20055;-78
2023/10/26 00:05:41;;;;;;;45.92;31.38;;;;;;;9.89;100.00;99623.16;4920646;29;20055;-78
2023/10/26 00:08:08;;;;;;;45.33;32.10;;;;;;;9.90;100.00;99624.03;4954008;29;20050;-77
2023/10/26 00:10:42;;;;;;;38.03;29.67;;;;;;;9.90;100.00;99631.91;4925602;29;20067;-78
2023/10/26 00:13:09;;;;;;;45.63;30.30;;;;;;;9.91;100.00;99631.03;4926998;29;20058;-77
2023/10/26 00:15:38;;;;;;;45.13;32.00;;;;;;;9.92;100.00;99630.13;4882292;29;20501;-79
2023/10/26 00:18:05;;;;;;;44.20;31.60;;;;;;;9.93;100.00;99631.91;4932148;29;20417;-78
2023/10/26 00:20:33;;;;;;;49.97;33.78;;;;;;;9.93;100.00;99629.25;4935457;29;20051;-77
2023/10/26 00:23:01;;;;;;;47.22;34.20;;;;;;;9.94;100.00;99633.63;4934307;29;20048;-78
2023/10/26 00:25:29;;;;;;;47.25;31.15;;;;;;;9.93;100.00;99634.53;4938745;29;20062;-79
2023/10/26 00:27:58;;;;;;;39.83;31.15;;;;;;;9.93;100.00;99637.16;4936255;29;20046;-78
2023/10/26 00:30:26;;;;;;;51.60;33.25;;;;;;;9.93;100.00;99634.53;4899860;29;20584;-78
2023/10/26 00:32:53;;;;;;;44.33;30.83;;;;;;;9.92;100.00;99638.03;4952679;29;20059;-79
2023/10/26 00:35:21;;;;;;;46.25;33.22;;;;;;;9.91;100.00;99645.06;4937433;29;20066;-79
2023/10/26 00:37:53;;;;;;;43.85;32.22;;;;;;;9.93;100.00;99643.28;4953043;29;20047;-77
2023/10/26 00:40:21;;;;;;;53.42;32.22;;;;;;;9.93;100.00;99650.31;4920119;29;20058;-78
2023/10/26 00:42:48;;;;;;;47.45;32.67;;;;;;;9.93;100.00;99643.28;4906945;29;20089;-77
2023/10/26 00:45:18;;;;;;;49.63;32.53;;;;;;;9.93;100.00;99642.41;4934750;29;20074;-78
2023/10/26 00:47:47;;;;;;;43.63;31.85;;;;;;;9.94;100.00;99654.66;4896907;29;20054;-78
2023/10/26 00:50:14;;;;;;;42.50;31.35;;;;;;;9.94;100.00;99650.28;4953059;29;20493;-77
2023/10/26 00:52:42;;;;;;;39.92;29.88;;;;;;;9.95;100.00;99659.06;4931124;29;20055;-77
2023/10/26 00:55:11;;;;;;;45.63;31.67;;;;;;;9.97;100.00;99659.03;4936494;29;20039;-78
2023/10/26 00:57:38;;;;;;;40.40;31.45;;;;;;;9.96;100.00;99655.50;4934860;29;20083;-78
2023/10/26 01:00:07;;;;;;;43.92;32.67;;;;;;;9.98;100.00;99664.28;4937376;29;20043;-78
2023/10/26 01:02:37;;;;;;;51.55;33.80;;;;;;;9.98;100.00;99666.03;4881303;29;20520;-78
2023/10/26 01:05:05;;;;;;;49.10;33.38;;;;;;;9.97;100.00;99659.03;4921787;29;20516;-77
2023/10/26 01:07:32;;;;;;;48.58;31.85;;;;;;;9.95;100.00;99656.41;4921562;29;20047;-77
2023/10/26 01:10:00;;;;;;;44.15;30.70;;;;;;;9.93;100.00;99658.22;4934404;29;20051;-78
2023/10/26 01:12:28;;;;;;;45.90;31.88;;;;;;;9.93;100.00;99658.22;4935268;29;20518;-77
2023/10/26 01:14:55;;;;;;;43.17;30.58;;;;;;;9.93;100.00;99652.94;4930472;29;20052;-79
2023/10/26 01:17:23;;;;;;;37.47;27.17;;;;;;;9.95;100.00;99645.91;4875340;29;20058;-77
2023/10/26 01:19:51;;;;;;;36.25;25.15;;;;;;;9.95;100.00;99656.41;4913760;29;20055;-79
2023/10/26 01:22:18;;;;;;;31.88;23.75;;;;;;;9.93;100.00;99663.47;4883628;29;20043;-77
2023/10/26 01:24:46;;;;;;;33.03;22.70;;;;;;;9.90;100.00;99666.13;4880452;29;20054;-77
2023/10/26 01:27:13;;;;;;;39.72;26.75;;;;;;;9.88;100.00;99667.91;4913302;29;20075;-79
2023/10/26 01:29:41;;;;;;;43.15;28.20;;;;;;;9.85;100.00;99660.94;4892710;29;20056;-77
2023/10/26 01:32:08;;;;;;;49.85;30.85;;;;;;;9.84;100.00;99663.59;4914702;29;20054;-77
2023/10/26 01:34:36;;;;;;;49.58;29.67;;;;;;;9.81;100.00;99659.25;4843880;29;20051;-78
2023/10/26 01:37:04;;;;;;;48.80;31.90;;;;;;;9.82;100.00;99660.97;4915857;29;20429;-78
2023/10/26 01:39:32;;;;;;;49.10;31.95;;;;;;;9.82;100.00;99665.38;4905029;29;20417;-78
2023/10/26 01:42:00;;;;;;;49.03;30.63;;;;;;;9.81;100.00;99653.09;4932895;29;20390;-78
2023/10/26 01:44:28;;;;;;;48.13;31.48;;;;;;;9.82;100.00;99655.69;4898954;29;20154;-78
2023/10/26 01:46:55;;;;;;;57.60;34.20;;;;;;;9.81;100.00;99666.25;4902979;29;20059;-78
2023/10/26 01:49:23;;;;;;;44.67;31.75;;;;;;;9.82;100.00;99671.50;4865616;29;20048;-78
2023/10/26 01:51:50;;;;;;;49.42;31.23;;;;;;;9.83;100.00;99664.47;4915608;29;20044;-78
2023/10/26 01:54:17;;;;;;;46.45;31.05;;;;;;;9.82;100.00;99668.00;4901846;29;20062;-78
2023/10/26 01:56:45;;;;;;;45.65;31.50;;;;;;;9.82;100.00;99673.25;4913664;29;20059;-77
2023/10/26 01:59:12;;;;;;;45.65;30.35;;;;;;;9.83;100.00;99677.63;4916110;29;20048;-77
2023/10/26 02:01:39;;;;;;;53.03;32.95;;;;;;;9.82;100.00;99674.13;4898335;29;20035;-77
2023/10/26 02:04:07;;;;;;;44.22;31.02;;;;;;;9.81;100.00;99669.78;4868988;29;20048;-77
2023/10/26 02:06:34;;;;;;;47.40;31.30;;;;;;;9.80;100.00;99672.41;4932852;29;20047;-77
2023/10/26 02:09:02;;;;;;;47.10;30.70;;;;;;;9.80;100.00;99677.69;4898303;29;20437;-80
2023/10/26 02:11:36;;;;;;;50.60;31.77;;;;;;;9.79;100.00;99671.53;4914323;29;20052;-78
2023/10/26 02:14:03;;;;;;;44.25;30.25;;;;;;;9.79;100.00;99678.56;4902548;29;20047;-79
2023/10/26 02:16:31;;;;;;;52.58;33.60;;;;;;;9.80;100.00;99680.31;4910382;29;20052;-78
2023/10/26 02:18:58;;;;;;;55.88;31.00;;;;;;;9.80;100.00;99680.31;4886702;29;20044;-78
2023/10/26 02:21:27;;;;;;;42.08;30.70;;;;;;;9.80;100.00;99677.69;4876211;29;20432;-78
2023/10/26 02:23:54;;;;;;;56.25;32.95;;;;;;;9.80;100.00;99677.69;4935309;29;20054;-79
2023/10/26 02:26:22;;;;;;;50.95;32.92;;;;;;;9.80;100.00;99682.94;4935781;29;20520;-79
2023/10/26 02:28:50;;;;;;;50.90;31.70;;;;;;;9.80;100.00;99678.53;4916450;29;20634;-79
2023/10/26 02:31:17;;;;;;;47.70;31.42;;;;;;;9.82;100.00;99683.78;4905426;29;20051;-77
2023/10/26 02:33:47;;;;;;;41.67;29.30;;;;;;;9.81;100.00;99669.78;4905196;29;20039;-78
2023/10/26 02:36:14;;;;;;;46.75;30.17;;;;;;;9.84;100.00;99676.75;4860017;29;20058;-78
2023/10/26 02:38:42;;;;;;;43.92;30.92;;;;;;;9.84;100.00;99679.38;4910682;29;20493;-76
2023/10/26 02:41:09;;;;;;;48.85;32.22;;;;;;;9.83;100.00;99683.78;4929593;29;20058;-79
2023/10/26 02:43:37;;;;;;;54.83;33.17;;;;;;;9.84;100.00;99684.63;4930755;29;20062;-77
2023/10/26 02:46:04;;;;;;;51.83;30.60;;;;;;;9.84;100.00;99680.22;4919010;29;20047;-78
2023/10/26 02:48:33;;;;;;;50.03;32.97;;;;;;;9.83;100.00;99682.88;4942869;28;20056;-77
2023/10/26 02:51:03;;;;;;;38.08;28.98;;;;;;;9.84;100.00;99684.63;4919917;29;20064;-76
2023/10/26 02:53:31;;;;;;;50.95;31.42;;;;;;;9.84;100.00;99679.38;4895103;29;20058;-78
2023/10/26 02:55:58;;;;;;;48.53;30.45;;;;;;;9.84;100.00;99687.25;4932554;29;20409;-77
2023/10/26 02:58:26;;;;;;;54.53;32.33;;;;;;;9.84;100.00;99693.38;4901093;29;20052;-77
2023/10/26 03:00:54;;;;;;;50.47;30.80;;;;;;;9.84;100.00;99706.53;4916822;29;20058;-77
2023/10/26 03:03:22;;;;;;;53.22;31.02;;;;;;;9.84;100.00;99705.69;4953408;29;20052;-78
2023/10/26 03:05:51;;;;;;;42.25;29.13;;;;;;;9.84;100.00;99695.16;4937413;28;20051;-78
2023/10/26 03:08:19;;;;;;;44.20;29.23;;;;;;;9.84;100.00;99688.13;4879850;29;20216;-78
2023/10/26 03:10:47;;;;;;;47.10;30.25;;;;;;;9.85;100.00;99692.50;4935430;29;20058;-78
2023/10/26 03:13:14;;;;;;;50.65;31.45;;;;;;;9.85;100.00;99695.16;4936648;29;20051;-78
2023/10/26 03:15:42;;;;;;;46.70;30.67;;;;;;;9.86;100.00;99709.16;4903629;29;20058;-78
2023/10/26 03:18:10;;;;;;;43.10;29.23;;;;;;;9.87;100.00;99700.41;4905424;29;20055;-78
2023/10/26 03:20:37;;;;;;;44.47;29.75;;;;;;;9.85;100.00;99692.50;4935777;29;20541;-78
2023/10/26 03:23:05;;;;;;;47.33;30.13;;;;;;;9.85;100.00;99694.25;4937444;29;20043;-78
2023/10/26 03:25:32;;;;;;;49.25;30.80;;;;;;;9.85;100.00;99697.78;4900456;29;20391;-78
2023/10/26 03:27:59;;;;;;;45.35;30.50;;;;;;;9.86;100.00;99690.75;4935777;29;20060;-79
2023/10/26 03:30:27;;;;;;;44.85;30.02;;;;;;;9.86;100.00;99688.13;4948205;29;20070;-77
2023/10/26 03:32:55;;;;;;;44.80;29.65;;;;;;;9.84;100.00;99688.13;4955050;29;20528;-77
2023/10/26 03:35:23;;;;;;;48.17;31.45;;;;;;;9.84;100.00;99684.63;4934344;29;20059;-78
2023/10/26 03:37:50;;;;;;;46.80;29.70;;;;;;;9.84;100.00;99682.88;4923737;29;20428;-78
2023/10/26 03:40:18;;;;;;;47.35;30.30;;;;;;;9.83;100.00;99689.03;4885289;29;20059;-77
2023/10/26 03:42:45;;;;;;;47.63;30.67;;;;;;;9.83;100.00;99688.13;4938882;29;20468;-77
2023/10/26 03:45:12;;;;;;;47.80;32.08;;;;;;;9.81;100.00;99698.72;4922971;29;20109;-78
2023/10/26 03:47:41;;;;;;;43.42;29.98;;;;;;;9.81;100.00;99705.72;4903842;29;20055;-77
2023/10/26 03:50:09;;;;;;;41.28;29.10;;;;;;;9.80;100.00;99704.84;4925596;29;20040;-76
2023/10/26 03:52:37;;;;;;;53.28;32.00;;;;;;;9.80;100.00;99704.84;4920749;29;20054;-78
2023/10/26 03:55:04;;;;;;;45.40;30.33;;;;;;;9.81;100.00;99703.06;4855157;29;20055;-78
2023/10/26 03:57:33;;;;;;;45.25;29.95;;;;;;;9.79;100.00;99696.97;4919689;29;20394;-79
2023/10/26 04:00:02;;;;;;;42.78;30.02;;;;;;;9.79;100.00;99691.72;4918038;29;20155;-77
2023/10/26 04:02:37;;;;;;;46.65;30.58;;;;;;;9.79;100.00;99696.97;4914555;29;20063;-78
2023/10/26 04:05:06;;;;;;;45.42;29.77;;;;;;;9.78;100.00;99689.97;4929096;29;20039;-78
2023/10/26 04:07:34;;;;;;;52.25;32.50;;;;;;;9.78;100.00;99685.59;4943604;28;20077;-78
2023/10/26 04:10:05;;;;;;;46.30;30.75;;;;;;;9.78;100.00;99684.72;4914324;28;20408;-78
2023/10/26 04:12:33;;;;;;;53.33;32.40;;;;;;;9.78;100.00;99690.84;4893199;29;20051;-78
2023/10/26 04:15:01;;;;;;;44.20;29.95;;;;;;;9.78;100.00;99695.25;4933403;29;20051;-78
2023/10/26 04:17:28;;;;;;;53.45;33.38;;;;;;;9.77;100.00;99689.09;4915645;29;20062;-77
2023/10/26 04:19:57;;;;;;;54.05;32.65;;;;;;;9.78;100.00;99689.97;4918163;29;20051;-77
2023/10/26 04:22:26;;;;;;;50.17;31.52;;;;;;;9.77;100.00;99691.72;4934923;29;20051;-77
2023/10/26 04:24:54;;;;;;;63.35;35.35;;;;;;;9.78;100.00;99687.34;4928361;29;20065;-78
2023/10/26 04:27:21;;;;;;;57.70;35.97;;;;;;;9.77;100.00;99689.09;4891357;29;20050;-78
2023/10/26 04:29:49;;;;;;;51.35;33.95;;;;;;;9.79;100.00;99689.06;4936834;29;20055;-78
2023/10/26 04:32:16;;;;;;;64.43;38.30;;;;;;;9.79;100.00;99682.03;4917516;29;20452;-77
2023/10/26 04:34:44;;;;;;;51.45;34.88;;;;;;;9.81;100.00;99684.66;4902063;29;20055;-77
2023/10/26 04:37:12;;;;;;;54.92;35.33;;;;;;;9.81;100.00;99674.13;4917290;29;20055;-77
2023/10/26 04:39:43;;;;;;;52.90;33.95;;;;;;;9.82;100.00;99673.25;4910737;29;20047;-76
2023/10/26 04:46:13;;;;;;;55.47;34.75;;;;;;;9.82;100.00;99673.25;4946097;29;20054;-77
2023/10/26 04:48:41;;;;;;;51.50;35.03;;;;;;;9.83;100.00;99667.09;4952198;29;20051;-78
2023/10/26 04:51:08;;;;;;;53.58;35.58;;;;;;;9.83;100.00;99673.25;4920283;29;20493;-77
2023/10/26 04:53:36;;;;;;;54.10;35.00;;;;;;;9.84;100.00;99674.13;4905109;29;20062;-77
2023/10/26 04:56:03;;;;;;;49.75;33.47;;;;;;;9.84;100.00;99674.13;4904192;29;20991;-77
2023/10/26 04:58:31;;;;;;;43.55;32.53;;;;;;;9.84;100.00;99669.72;4860123;29;20059;-78
2023/10/26 05:00:59;;;;;;;51.00;35.08;;;;;;;9.85;100.00;99678.47;4901736;29;20043;-78
2023/10/26 05:03:27;;;;;;;55.05;33.95;;;;;;;9.83;100.00;99681.16;4921176;29;20047;-78
2023/10/26 05:05:54;;;;;;;59.63;34.60;;;;;;;9.83;100.00;99674.97;4901146;29;20063;-78
2023/10/26 05:08:22;;;;;;;55.58;33.50;;;;;;;9.82;100.00;99682.03;4934960;29;20058;-78
2023/10/26 05:10:49;;;;;;;57.53;33.95;;;;;;;9.81;100.00;99675.03;4897997;29;20054;-78
2023/10/26 05:13:17;;;;;;;55.83;33.35;;;;;;;9.80;100.00;99678.53;4864321;28;20066;-78
2023/10/26 05:15:45;;;;;;;53.92;33.70;;;;;;;9.80;100.00;99678.53;4919846;29;20059;-78
2023/10/26 05:18:12;;;;;;;54.45;32.85;;;;;;;9.78;100.00;99676.81;4920825;29;20833;-80
2023/10/26 05:20:50;;;;;;;46.45;30.80;;;;;;;9.76;100.00;99677.69;4936649;29;20050;-78
2023/10/26 05:23:17;;;;;;;48.90;31.80;;;;;;;9.75;100.00;99675.97;4932971;29;20047;-78
2023/10/26 05:25:48;;;;;;;46.30;30.60;;;;;;;9.74;100.00;99676.00;4919892;28;20051;-78
2023/10/26 05:28:15;;;;;;;44.78;29.73;;;;;;;9.72;100.00;99676.00;4913392;28;20078;-78
2023/10/26 05:30:42;;;;;;;51.22;30.90;;;;;;;9.70;100.00;99674.28;4920615;28;20047;-78
2023/10/26 05:33:10;;;;;;;46.22;30.38;;;;;;;9.68;100.00;99674.31;4900565;29;20063;-77
2023/10/26 05:35:38;;;;;;;52.15;31.13;;;;;;;9.67;100.00;99680.44;4916391;29;20824;-78
2023/10/26 05:38:06;;;;;;;43.40;26.02;;;;;;;9.66;100.00;99672.56;4909884;29;20050;-79
2023/10/26 05:40:34;;;;;;;46.78;26.55;;;;;;;9.63;100.00;99673.47;4923225;28;20078;-78
2023/10/26 05:43:01;;;;;;;41.65;27.70;;;;;;;9.62;100.00;99665.59;4881463;29;20514;-78
2023/10/26 05:45:36;;;;;;;44.60;26.00;;;;;;;9.61;100.00;99672.63;4934526;29;20054;-77
2023/10/26 05:48:05;;;;;;;47.40;29.77;;;;;;;9.60;100.00;99667.38;4928937;29;20404;-78
2023/10/26 05:50:33;;;;;;;51.05;29.02;;;;;;;9.60;100.00;99668.25;4939740;29;20050;-79
2023/10/26 05:53:00;;;;;;;47.15;28.60;;;;;;;9.58;100.00;99672.66;4903386;29;20055;-77
2023/10/26 05:55:27;;;;;;;47.80;27.52;;;;;;;9.55;100.00;99672.72;4916028;29;20081;-79
2023/10/26 05:57:55;;;;;;;47.92;29.27;;;;;;;9.54;100.00;99666.56;4925105;29;20063;-78
2023/10/26 06:00:22;;;;;;;50.78;27.90;;;;;;;9.53;100.00;99663.97;4877002;29;20054;-78
2023/10/26 06:02:51;;;;;;;51.17;28.63;;;;;;;9.51;100.00;99663.13;4927457;28;20047;-77
2023/10/26 06:05:20;;;;;;;43.40;27.02;;;;;;;9.49;100.00;99671.00;4951221;29;20039;-78
2023/10/26 06:07:47;;;;;;;39.15;26.20;;;;;;;9.46;100.00;99665.78;4919496;29;20070;-78
2023/10/26 06:10:15;;;;;;;37.08;20.88;;;;;;;9.43;100.00;99673.69;4919060;29;20390;-78
2023/10/26 06:12:42;;;;;;;36.38;20.92;;;;;;;9.42;100.00;99671.09;4891412;28;20062;-78
2023/10/26 06:15:10;;;;;;;34.22;20.45;;;;;;;9.41;100.00;99679.88;4891605;29;20061;-77
2023/10/26 06:17:37;;;;;;;34.60;21.63;;;;;;;9.39;100.00;99679.00;4932920;29;20456;-78
2023/10/26 06:20:05;;;;;;;40.15;21.52;;;;;;;9.36;100.00;99678.16;4938231;28;20051;-78
2023/10/26 06:22:32;;;;;;;41.15;21.35;;;;;;;9.37;100.00;99679.03;4898987;29;20054;-78
2023/10/26 06:25:05;;;;;;;37.03;20.73;;;;;;;9.39;100.00;99686.91;4934795;29;20489;-77
2023/10/26 06:27:32;;;;;;;37.03;20.77;;;;;;;9.36;100.00;99685.19;4904155;29;20055;-77
2023/10/26 06:30:00;;;;;;;47.58;19.88;;;;;;;9.38;100.00;99682.53;4898223;29;20054;-78
2023/10/26 06:32:27;;;;;;;38.65;22.10;;;;;;;9.38;100.00;99682.53;4874656;29;20054;-78
2023/10/26 06:34:55;;;;;;;33.72;21.67;;;;;;;9.38;100.00;99690.44;4908063;29;20054;-78
2023/10/26 06:37:24;;;;;;;34.65;21.33;;;;;;;9.34;100.00;99693.09;4901084;29;20062;-78
2023/10/26 06:39:51;;;;;;;38.38;22.20;;;;;;;9.32;100.00;99694.84;4893722;28;20054;-78
2023/10/26 06:42:19;;;;;;;38.58;22.20;;;;;;;9.30;100.00;99690.47;4938523;28;20054;-78
2023/10/26 06:44:55;;;;;;;37.85;21.52;;;;;;;9.31;100.00;99701.00;4895784;29;20043;-79
2023/10/26 06:47:22;;;;;;;34.72;21.65;;;;;;;9.32;100.00;99699.25;4883450;29;20051;-77
2023/10/26 06:49:49;;;;;;;33.80;21.55;;;;;;;9.30;100.00;99701.91;4921471;29;20047;-79
2023/10/26 06:52:17;;;;;;;37.38;22.30;;;;;;;9.27;100.00;99704.53;4934072;29;20512;-78
2023/10/26 06:54:51;;;;;;;36.55;21.90;;;;;;;9.24;100.00;99699.31;4954026;29;20051;-77
2023/10/26 06:57:19;;;;;;;37.47;21.63;;;;;;;9.21;100.00;99699.34;4908605;29;20062;-77
2023/10/26 06:59:47;;;;;;;38.88;20.73;;;;;;;9.22;100.00;99700.22;4912185;28;20047;-79
2023/10/26 07:02:16;;;;;;;35.45;21.75;;;;;;;9.22;100.00;99700.22;4903034;28;20035;-79
2023/10/26 07:04:44;;;;;;;34.80;21.10;;;;;;;9.22;100.00;99701.06;4953054;29;20039;-78
2023/10/26 07:07:14;;;;;;;36.90;21.02;;;;;;;9.19;100.00;99698.50;4904839;29;20047;-78
2023/10/26 07:09:42;;;;;;;35.92;21.58;;;;;;;9.20;100.00;99697.59;4909217;29;20059;-77
2023/10/26 07:12:09;;;;;;;35.75;21.42;;;;;;;9.17;100.00;99701.13;4913882;29;20054;-78
2023/10/26 07:14:36;;;;;;;29.95;19.90;;;;;;;9.15;100.00;99697.66;4912764;28;20056;-76
2023/10/26 07:17:04;;;;;;;30.58;19.80;;;;;;;9.15;100.00;99702.03;4881340;29;20042;-79
2023/10/26 07:19:31;;;;;;;29.38;19.90;;;;;;;9.15;100.00;99705.53;4905544;29;20043;-78
2023/10/26 07:21:58;;;;;;;32.20;19.80;;;;;;;9.09;100.00;99716.13;4918923;29;20051;-78
2023/10/26 07:24:26;;;;;;;34.90;19.13;;;;;;;9.06;100.00;99705.63;4932996;29;20055;-77
2023/10/26 07:26:54;;;;;;;40.22;20.05;;;;;;;9.05;100.00;99709.13;4921122;29;20055;-77
2023/10/26 07:29:22;;;;;;;30.40;17.92;;;;;;;9.03;100.00;99710.88;4925544;29;20050;-77
2023/10/26 07:31:49;;;;;;;30.13;18.48;;;;;;;9.00;100.00;99710.03;4890239;28;20405;-80
2023/10/26 07:34:17;;;;;;;31.02;18.67;;;;;;;8.98;100.00;99708.31;4925315;29;20054;-78
2023/10/26 07:36:45;;;;;;;32.67;18.35;;;;;;;9.01;100.00;99706.53;4902997;29;20066;-77
2023/10/26 07:39:12;;;;;;;30.77;18.15;;;;;;;9.06;100.00;99712.63;4938009;29;20047;-78
2023/10/26 07:41:59;;;;;;;32.47;18.13;;;;;;;9.09;100.00;99713.47;4932216;28;20051;-77
2023/10/26 07:44:38;;;;;;;30.65;18.58;;;;;;;9.08;100.00;99714.34;4936806;29;20132;-78
2023/10/26 07:47:08;;;;;;;;;;;;;;;9.08;100.00;99713.50;4857777;28;20047;-78
2023/10/26 07:49:36;;;;;;;37.25;17.38;;;;;;;9.05;100.00;99711.75;4928327;29;19934;-77
2023/10/26 07:52:04;;;;;;;33.38;18.27;;;;;;;9.03;100.00;99708.25;4937459;29;20485;-78
2023/10/26 07:54:31;;;;;;;35.03;17.67;;;;;;;9.02;100.00;99709.16;4913115;29;20082;-79
2023/10/26 07:56:59;;;;;;;32.80;17.73;;;;;;;9.06;100.00;99712.63;4911044;29;20036;-80
2023/10/26 07:59:27;;;;;;;25.77;16.85;;;;;;;9.11;100.00;99713.44;4933434;29;20073;-80
2023/10/26 08:01:54;;;;;;;26.30;17.10;;;;;;;9.11;100.00;99710.81;4873381;29;20044;-79
2023/10/26 08:04:22;;;;;;;29.70;17.90;;;;;;;9.13;100.00;99704.69;4913135;28;20051;-78
2023/10/26 08:06:49;;;;;;;29.65;17.17;;;;;;;9.20;100.00;99700.22;4950700;28;20043;-79
2023/10/26 08:09:17;;;;;;;31.33;17.67;;;;;;;9.30;100.00;99698.38;4935467;29;20055;-78
2023/10/26 08:11:44;;;;;;;30.55;17.90;;;;;;;9.42;100.00;99700.03;4937321;29;20043;-78
2023/10/26 08:14:11;;;;;;;27.73;17.58;;;;;;;9.52;100.00;99706.91;4903401;29;20508;-78
2023/10/26 08:16:59;;;;;;;27.13;17.27;;;;;;;9.61;100.00;99698.06;4878597;29;20055;-78
2023/10/26 08:19:27;;;;;;;28.02;17.42;;;;;;;9.70;100.00;99693.56;4934108;29;20050;-77
2023/10/26 08:21:55;;;;;;;31.58;19.08;;;;;;;9.78;100.00;99711.03;4909796;29;20052;-77
2023/10/26 08:24:23;;;;;;;34.45;18.00;;;;;;;9.76;100.00;99709.28;4900570;29;20071;-77
2023/10/26 08:26:51;;;;;;;29.92;19.00;;;;;;;9.76;100.00;99713.66;4930919;29;20421;-79
2023/10/26 08:29:19;;;;;;;35.45;19.20;;;;;;;9.73;100.00;99711.06;4914913;29;20417;-79
2023/10/26 08:31:55;;;;;;;37.90;20.45;;;;;;;9.69;100.00;99725.16;4904298;29;20047;-78
2023/10/26 08:34:23;;;;;;;35.40;20.42;;;;;;;9.67;100.00;99716.41;4874390;29;20058;-79
2023/10/26 08:36:50;;;;;;;36.20;21.65;;;;;;;9.61;100.00;99721.75;4924291;29;20058;-80
2023/10/26 08:39:38;;;;;;;39.47;22.02;;;;;;;9.58;100.00;99725.25;4930258;29;20493;-79
2023/10/26 08:42:08;;;;;;;41.78;22.55;;;;;;;9.56;100.00;99727.94;4885629;29;20505;-78
2023/10/26 08:44:37;;;;;;;35.90;22.38;;;;;;;9.51;100.00;99724.47;4929322;29;20056;-77
2023/10/26 08:47:05;;;;;;;39.42;23.98;;;;;;;9.48;100.00;99732.38;4882608;29;20048;-78
2023/10/26 08:49:33;;;;;;;41.80;22.98;;;;;;;9.47;100.00;99729.75;4836782;29;20056;-78
2023/10/26 08:52:00;;;;;;;44.53;24.67;;;;;;;9.47;100.00;99737.63;4934254;29;20039;-78
2023/10/26 08:54:29;;;;;;;37.58;22.38;;;;;;;9.48;100.00;99731.50;4936591;29;20398;-81
2023/10/26 08:57:08;;;;;;;35.67;20.98;;;;;;;9.46;100.00;99728.03;4935732;29;20498;-81
2023/10/26 08:59:36;;;;;;;39.67;21.88;;;;;;;9.47;100.00;99738.53;4903190;29;20840;-81
2023/10/26 09:02:04;;;;;;;40.42;22.25;;;;;;;9.49;100.00;99733.22;4929194;29;20603;-83
2023/10/26 09:04:32;;;;;;;38.55;21.83;;;;;;;9.50;100.00;99727.09;4878987;29;20525;-79
2023/10/26 09:07:01;;;;;;;41.45;23.30;;;;;;;9.54;100.00;99734.06;4929809;29;20482;-79
2023/10/26 09:09:42;;;;;;;39.95;21.40;;;;;;;9.56;100.00;99730.56;4917409;29;20060;-77
2023/10/26 09:12:09;;;;;;;40.55;23.45;;;;;;;9.61;100.00;99738.38;4934290;29;20035;-78
2023/10/26 09:14:37;;;;;;;42.35;22.42;;;;;;;9.64;100.00;99737.47;4912501;29;20545;-77
2023/10/26 09:17:04;;;;;;;40.03;22.17;;;;;;;9.60;100.00;99736.63;4913085;29;20058;-79
2023/10/26 09:19:45;;;;;;;38.20;22.20;;;;;;;9.57;100.00;99731.41;4869939;29;20112;-77
2023/10/26 09:22:13;;;;;;;34.97;20.83;;;;;;;9.61;100.00;99743.66;4932589;29;20055;-77
2023/10/26 09:24:41;;;;;;;39.38;21.77;;;;;;;9.65;100.00;99737.47;4906416;29;20060;-77
2023/10/26 09:27:18;;;;;;;38.40;20.42;;;;;;;9.68;100.00;99747.97;4935326;28;20055;-78
2023/10/26 09:29:47;;;;;;;36.60;20.30;;;;;;;9.69;100.00;99744.41;4922053;29;20074;-78
2023/10/26 09:32:15;;;;;;;36.72;20.73;;;;;;;9.70;100.00;99748.81;4934083;29;20047;-78
2023/10/26 09:34:45;;;;;;;38.25;21.92;;;;;;;9.74;100.00;99741.75;4898912;28;20047;-78
2023/10/26 09:37:13;;;;;;;39.13;21.80;;;;;;;9.78;100.00;99742.59;4937876;28;20051;-78
2023/10/26 09:39:43;;;;;;;38.42;22.00;;;;;;;9.83;100.00;99735.50;4900442;29;20063;-77
2023/10/26 09:42:10;;;;;;;44.20;22.48;;;;;;;9.87;100.00;99727.56;4945798;29;20050;-77
2023/10/26 09:44:39;;;;;;;44.35;22.98;;;;;;;9.91;100.00;99728.41;4910101;29;20050;-77
2023/10/26 09:47:07;;;;;;;36.60;22.08;;;;;;;9.95;100.00;99728.34;4918054;29;20043;-78
2023/10/26 09:49:34;;;;;;;32.75;20.58;;;;;;;10.00;100.00;99732.66;4929701;29;20424;-77
2023/10/26 09:52:03;;;;;;;37.92;21.02;;;;;;;10.03;100.00;99728.25;4866179;29;20039;-78
2023/10/26 09:54:39;;;;;;;34.53;20.30;;;;;;;10.08;100.00;99744.00;4936551;29;20055;-78
2023/10/26 09:57:17;;;;;;;36.65;21.90;;;;;;;10.10;100.00;99731.69;4933964;29;20678;-80
2023/10/26 09:59:51;;;;;;;35.05;21.40;;;;;;;10.15;100.00;99738.63;4912943;28;20070;-79
2023/10/26 10:02:20;;;;;;;33.92;21.48;;;;;;;10.14;100.00;99736.88;4924185;28;20059;-79
2023/10/26 10:04:48;;;;;;;36.10;21.65;;;;;;;10.12;100.00;99737.81;4918674;29;20051;-80
2023/10/26 10:07:17;;;;;;;36.17;21.90;;;;;;;10.14;100.00;99731.59;4892124;29;20074;-78
2023/10/26 10:10:00;;;;;;;36.55;21.73;;;;;;;10.18;100.00;99732.44;4928518;28;20050;-80
2023/10/26 10:12:32;;;;;;;37.03;22.42;;;;;;;10.21;100.00;99734.16;4928974;29;20104;-79
2023/10/26 10:15:03;;;;;;;38.85;23.25;;;;;;;10.23;100.00;99738.53;4922331;28;20047;-78
2023/10/26 10:17:51;;;;;;;36.30;22.58;;;;;;;10.24;100.00;99742.03;4919631;29;20086;-77
2023/10/26 10:20:22;;;;;;;34.72;22.45;;;;;;;10.23;100.00;99745.56;4940156;28;20046;-77
2023/10/26 10:22:53;;;;;;;39.63;23.98;;;;;;;10.27;100.00;99739.38;4874094;28;20047;-80
2023/10/26 10:25:23;;;;;;;39.45;22.83;;;;;;;10.33;100.00;99750.69;4928521;29;20082;-78
2023/10/26 10:27:50;;;;;;;36.38;23.85;;;;;;;10.39;100.00;99752.38;4921416;29;20055;-77
2023/10/26 10:30:27;;;;;;;37.25;23.35;;;;;;;10.42;100.00;99749.72;4933326;29;20058;-81
2023/10/26 10:32:56;;;;;;;37.67;23.17;;;;;;;10.48;100.00;99751.41;4927863;29;20050;-80
2023/10/26 10:35:43;;;;;;;37.90;24.35;;;;;;;10.52;100.00;99748.69;4923233;28;20055;-79
2023/10/26 10:38:10;;;;;;;44.63;25.30;;;;;;;10.59;100.00;99753.88;4913174;28;20059;-78
2023/10/26 10:40:40;;;;;;;40.05;24.05;;;;;;;10.66;100.00;99743.25;4925375;28;20065;-79
2023/10/26 10:43:09;;;;;;;38.35;25.05;;;;;;;10.74;100.00;99740.50;4952522;28;20070;-80
2023/10/26 10:45:37;;;;;;;35.92;24.40;;;;;;;10.80;100.00;99743.03;4912434;29;20079;-79
2023/10/26 10:48:04;;;;;;;39.08;23.77;;;;;;;10.83;100.00;99740.34;4911845;28;20467;-78
2023/10/26 10:50:32;;;;;;;39.40;24.60;;;;;;;10.90;100.00;99751.66;4938407;29;20064;-79
2023/10/26 10:53:00;;;;;;;36.08;24.58;;;;;;;10.94;100.00;99742.78;4881618;28;20054;-80
2023/10/26 10:55:29;;;;;;;32.28;22.00;;;;;;;10.96;100.00;99737.50;4894801;28;20397;-82
2023/10/26 10:57:58;;;;;;;32.60;22.38;;;;;;;10.93;100.00;99754.25;4933577;28;20039;-81
2023/10/26 11:00:28;;;;;;;33.90;23.23;;;;;;;10.88;100.00;99746.41;4933415;29;20058;-79
2023/10/26 11:02:58;;;;;;;31.13;23.30;;;;;;;10.89;100.00;99739.38;4912670;29;20039;-79
2023/10/26 11:05:39;;;;;;;30.80;22.73;;;;;;;10.85;100.00;99743.81;4912114;29;20062;-81
2023/10/26 11:08:08;;;;;;;36.97;23.30;;;;;;;10.86;100.00;99734.16;4874751;29;20047;-80
2023/10/26 11:10:35;;;;;;;33.47;23.67;;;;;;;10.89;100.00;99732.34;4909542;29;20112;-79
2023/10/26 11:13:03;;;;;;;38.80;24.92;;;;;;;10.93;100.00;99726.13;4918376;28;20044;-80
2023/10/26 11:15:37;;;;;;;34.38;23.35;;;;;;;10.96;100.00;99725.19;4939212;29;20066;-80
2023/10/26 11:18:07;;;;;;;31.98;23.55;;;;;;;11.00;100.00;99729.53;4928907;29;20050;-79
2023/10/26 11:20:37;;;;;;;35.13;25.00;;;;;;;11.06;100.00;99729.44;4936887;28;20054;-79
2023/10/26 11:23:07;;;;;;;39.85;25.23;;;;;;;11.11;100.00;99730.22;4880564;29;20040;-82
2023/10/26 11:25:34;;;;;;;39.63;25.50;;;;;;;11.16;100.00;99730.13;4935389;28;20055;-80
2023/10/26 11:28:02;;;;;;;35.08;24.88;;;;;;;11.21;100.00;99722.13;4908419;29;20055;-82